sensor_id;sensor_type;location;lat;lon;timestamp;temperature;humidity
17956;DHT22;27666;51.498;11.966;2022-11-12T00:00:44;8.60;99.90
17956;DHT22;27666;51.498;11.966;2022-11-12T00:03:32;8.70;99.90
17956;DHT22;27666;51.498;11.966;2022-11-12T00:06:19;8.80;99.90
17956;DHT22;27666;51.498;11.966;2022-11-12T00:09:05;8.80;99.90
17956;DHT22;27666;51.498;11.966;2022-11-12T00:11:51;8.70;99.90
17956;DHT22;27666;51.498;11.966;2022-11-12T00:14:37;8.70;99.90
17956;DHT22;27666;51.498;11.966;2022-11-12T00:17:24;8.60;99.90
17956;DHT22;27666;51.498;11.966;2022-11-12T00:20:12;8.50;99.90
17956;DHT22;27666;51.498;11.966;2022-11-12T00:22:58;8.60;99.90
17956;DHT22;27666;51.498;11.966;2022-11-12T00:25:44;8.60;99.90
17956;DHT22;27666;51.498;11.966;2022-11-12T00:28:31;8.50;99.90
17956;DHT22;27666;51.498;11.966;2022-11-12T00:31:22;8.60;99.90
17956;DHT22;27666;51.498;11.966;2022-11-12T00:34:08;8.50;99.90
17956;DHT22;27666;51.498;11.966;2022-11-12T00:36:56;8.50;99.90
17956;DHT22;27666;51.498;11.966;2022-11-12T00:39:43;8.50;99.90
17956;DHT22;27666;51.498;11.966;2022-11-12T00:42:29;8.40;99.90
17956;DHT22;27666;51.498;11.966;2022-11-12T00:45:16;8.50;99.90
17956;DHT22;27666;51.498;11.966;2022-11-12T00:48:02;8.50;99.90
17956;DHT22;27666;51.498;11.966;2022-11-12T00:50:48;8.50;99.90
17956;DHT22;27666;51.498;11.966;2022-11-12T00:53:36;8.50;99.90
17956;DHT22;27666;51.498;11.966;2022-11-12T00:56:22;8.40;99.90
17956;DHT22;27666;51.498;11.966;2022-11-12T00:59:09;8.40;99.90
17956;DHT22;27666;51.498;11.966;2022-11-12T01:01:55;8.30;99.90
17956;DHT22;27666;51.498;11.966;2022-11-12T01:04:42;8.30;99.90
17956;DHT22;27666;51.498;11.966;2022-11-12T01:07:28;8.10;99.90
17956;DHT22;27666;51.498;11.966;2022-11-12T01:10:16;8.10;99.90
17956;DHT22;27666;51.498;11.966;2022-11-12T01:13:02;8.00;99.90
17956;DHT22;27666;51.498;11.966;2022-11-12T01:15:49;7.90;99.90
17956;DHT22;27666;51.498;11.966;2022-11-12T01:18:35;7.90;99.90
17956;DHT22;27666;51.498;11.966;2022-11-12T01:21:22;7.80;99.90
17956;DHT22;27666;51.498;11.966;2022-11-12T01:24:10;7.80;99.90
17956;DHT22;27666;51.498;11.966;2022-11-12T01:26:58;7.90;99.90
17956;DHT22;27666;51.498;11.966;2022-11-12T01:29:44;7.90;99.90
17956;DHT22;27666;51.498;11.966;2022-11-12T01:32:33;7.90;99.90
17956;DHT22;27666;51.498;11.966;2022-11-12T01:35:20;8.00;99.90
17956;DHT22;27666;51.498;11.966;2022-11-12T01:38:07;8.10;99.90
17956;DHT22;27666;51.498;11.966;2022-11-12T01:40:53;8.00;99.90
17956;DHT22;27666;51.498;11.966;2022-11-12T01:43:41;8.00;99.90
17956;DHT22;27666;51.498;11.966;2022-11-12T01:46:29;7.90;99.90
17956;DHT22;27666;51.498;11.966;2022-11-12T01:49:19;7.80;99.90
17956;DHT22;27666;51.498;11.966;2022-11-12T01:52:14;7.80;99.90
17956;DHT22;27666;51.498;11.966;2022-11-12T01:55:05;7.80;99.90
17956;DHT22;27666;51.498;11.966;2022-11-12T01:57:55;7.70;99.90
17956;DHT22;27666;51.498;11.966;2022-11-12T02:00:46;7.70;99.90
17956;DHT22;27666;51.498;11.966;2022-11-12T02:03:33;7.70;99.90
17956;DHT22;27666;51.498;11.966;2022-11-12T02:06:19;7.80;99.90
17956;DHT22;27666;51.498;11.966;2022-11-12T02:09:06;7.90;99.90
17956;DHT22;27666;51.498;11.966;2022-11-12T02:11:53;7.90;99.90
17956;DHT22;27666;51.498;11.966;2022-11-12T02:14:40;7.80;99.90
17956;DHT22;27666;51.498;11.966;2022-11-12T02:17:27;7.80;99.90
17956;DHT22;27666;51.498;11.966;2022-11-12T02:20:13;7.80;99.90
17956;DHT22;27666;51.498;11.966;2022-11-12T02:23:01;7.90;99.90
17956;DHT22;27666;51.498;11.966;2022-11-12T02:25:48;7.80;99.90
17956;DHT22;27666;51.498;11.966;2022-11-12T02:28:34;7.70;99.90
17956;DHT22;27666;51.498;11.966;2022-11-12T02:31:21;7.70;99.90
17956;DHT22;27666;51.498;11.966;2022-11-12T02:34:08;7.70;99.90
17956;DHT22;27666;51.498;11.966;2022-11-12T02:36:54;7.60;99.90
17956;DHT22;27666;51.498;11.966;2022-11-12T02:39:42;7.60;99.90
17956;DHT22;27666;51.498;11.966;2022-11-12T02:42:28;7.50;99.90
17956;DHT22;27666;51.498;11.966;2022-11-12T02:45:15;7.50;99.90
17956;DHT22;27666;51.498;11.966;2022-11-12T02:48:01;7.60;99.90
17956;DHT22;27666;51.498;11.966;2022-11-12T02:50:47;7.40;99.90
17956;DHT22;27666;51.498;11.966;2022-11-12T02:53:34;7.50;99.90
17956;DHT22;27666;51.498;11.966;2022-11-12T02:56:22;7.50;99.90
17956;DHT22;27666;51.498;11.966;2022-11-12T02:59:08;7.50;99.90
17956;DHT22;27666;51.498;11.966;2022-11-12T03:01:55;7.40;99.90
17956;DHT22;27666;51.498;11.966;2022-11-12T03:04:41;7.30;99.90
17956;DHT22;27666;51.498;11.966;2022-11-12T03:07:33;7.30;99.90
17956;DHT22;27666;51.498;11.966;2022-11-12T03:10:20;7.30;99.90
17956;DHT22;27666;51.498;11.966;2022-11-12T03:13:07;7.40;99.90
17956;DHT22;27666;51.498;11.966;2022-11-12T03:15:58;7.30;99.90
17956;DHT22;27666;51.498;11.966;2022-11-12T03:18:45;7.30;99.90
17956;DHT22;27666;51.498;11.966;2022-11-12T03:21:31;7.20;99.90
17956;DHT22;27666;51.498;11.966;2022-11-12T03:24:18;7.30;99.90
17956;DHT22;27666;51.498;11.966;2022-11-12T03:27:04;7.10;99.90
17956;DHT22;27666;51.498;11.966;2022-11-12T03:29:52;7.10;99.90
17956;DHT22;27666;51.498;11.966;2022-11-12T03:32:38;7.20;99.90
17956;DHT22;27666;51.498;11.966;2022-11-12T03:35:25;7.40;99.90
17956;DHT22;27666;51.498;11.966;2022-11-12T03:38:12;7.40;99.90
17956;DHT22;27666;51.498;11.966;2022-11-12T03:40:58;7.40;99.90
17956;DHT22;27666;51.498;11.966;2022-11-12T03:43:45;7.40;99.90
17956;DHT22;27666;51.498;11.966;2022-11-12T03:46:33;7.30;99.90
17956;DHT22;27666;51.498;11.966;2022-11-12T03:49:25;7.30;99.90
17956;DHT22;27666;51.498;11.966;2022-11-12T03:52:11;7.30;99.90
17956;DHT22;27666;51.498;11.966;2022-11-12T03:54:58;7.30;99.90
17956;DHT22;27666;51.498;11.966;2022-11-12T03:57:46;7.30;99.90
17956;DHT22;27666;51.498;11.966;2022-11-12T04:00:34;7.30;99.90
17956;DHT22;27666;51.498;11.966;2022-11-12T04:03:21;7.30;99.90
17956;DHT22;27666;51.498;11.966;2022-11-12T04:06:08;7.20;99.90
17956;DHT22;27666;51.498;11.966;2022-11-12T04:09:12;7.30;99.90
17956;DHT22;27666;51.498;11.966;2022-11-12T04:11:58;7.30;99.90
17956;DHT22;27666;51.498;11.966;2022-11-12T04:15:05;7.30;99.90
17956;DHT22;27666;51.498;11.966;2022-11-12T04:17:51;7.40;99.90
17956;DHT22;27666;51.498;11.966;2022-11-12T04:20:57;7.20;99.90
17956;DHT22;27666;51.498;11.966;2022-11-12T04:24:01;7.20;99.90
17956;DHT22;27666;51.498;11.966;2022-11-12T04:26:47;7.20;99.90
17956;DHT22;27666;51.498;11.966;2022-11-12T04:29:33;7.00;99.90
17956;DHT22;27666;51.498;11.966;2022-11-12T04:32:38;7.00;99.90
17956;DHT22;27666;51.498;11.966;2022-11-12T04:35:26;7.00;99.90
17956;DHT22;27666;51.498;11.966;2022-11-12T04:38:13;7.10;99.90
17956;DHT22;27666;51.498;11.966;2022-11-12T04:41:00;7.00;99.90
17956;DHT22;27666;51.498;11.966;2022-11-12T04:44:04;7.00;99.90
17956;DHT22;27666;51.498;11.966;2022-11-12T04:47:08;7.00;99.90
17956;DHT22;27666;51.498;11.966;2022-11-12T04:49:54;7.00;99.90
17956;DHT22;27666;51.498;11.966;2022-11-12T04:52:41;7.00;99.90
17956;DHT22;27666;51.498;11.966;2022-11-12T04:55:28;7.00;99.90
17956;DHT22;27666;51.498;11.966;2022-11-12T04:58:15;6.90;99.90
17956;DHT22;27666;51.498;11.966;2022-11-12T05:01:02;6.90;99.90
17956;DHT22;27666;51.498;11.966;2022-11-12T05:03:48;6.80;99.90
17956;DHT22;27666;51.498;11.966;2022-11-12T05:06:34;6.80;99.90
17956;DHT22;27666;51.498;11.966;2022-11-12T05:09:39;6.60;99.90
17956;DHT22;27666;51.498;11.966;2022-11-12T05:12:27;6.60;99.90
17956;DHT22;27666;51.498;11.966;2022-11-12T05:15:14;6.60;99.90
17956;DHT22;27666;51.498;11.966;2022-11-12T05:18:00;6.50;99.90
17956;DHT22;27666;51.498;11.966;2022-11-12T05:20:46;6.50;99.90
17956;DHT22;27666;51.498;11.966;2022-11-12T05:23:35;6.50;99.90
17956;DHT22;27666;51.498;11.966;2022-11-12T05:26:21;6.50;99.90
17956;DHT22;27666;51.498;11.966;2022-11-12T05:29:09;6.50;99.90
17956;DHT22;27666;51.498;11.966;2022-11-12T05:31:56;6.40;99.90
17956;DHT22;27666;51.498;11.966;2022-11-12T05:34:42;6.50;99.90
17956;DHT22;27666;51.498;11.966;2022-11-12T05:37:28;6.50;99.90
17956;DHT22;27666;51.498;11.966;2022-11-12T05:40:15;6.40;99.90
17956;DHT22;27666;51.498;11.966;2022-11-12T05:43:01;6.40;99.90
17956;DHT22;27666;51.498;11.966;2022-11-12T05:45:49;6.30;99.90
17956;DHT22;27666;51.498;11.966;2022-11-12T05:48:35;6.30;99.90
17956;DHT22;27666;51.498;11.966;2022-11-12T05:51:21;6.30;99.90
17956;DHT22;27666;51.498;11.966;2022-11-12T05:54:08;6.30;99.90
17956;DHT22;27666;51.498;11.966;2022-11-12T05:56:55;6.30;99.90
17956;DHT22;27666;51.498;11.966;2022-11-12T05:59:41;6.30;99.90
17956;DHT22;27666;51.498;11.966;2022-11-12T06:02:29;6.30;99.90
17956;DHT22;27666;51.498;11.966;2022-11-12T06:05:16;6.30;99.90
17956;DHT22;27666;51.498;11.966;2022-11-12T06:08:03;6.30;99.90
17956;DHT22;27666;51.498;11.966;2022-11-12T06:10:52;6.40;99.90
17956;DHT22;27666;51.498;11.966;2022-11-12T06:13:38;6.40;99.90
17956;DHT22;27666;51.498;11.966;2022-11-12T06:16:25;6.30;99.90
17956;DHT22;27666;51.498;11.966;2022-11-12T06:19:12;6.30;99.90
17956;DHT22;27666;51.498;11.966;2022-11-12T06:21:59;6.40;99.90
17956;DHT22;27666;51.498;11.966;2022-11-12T06:24:45;6.50;99.90
17956;DHT22;27666;51.498;11.966;2022-11-12T06:27:32;6.50;99.90
17956;DHT22;27666;51.498;11.966;2022-11-12T06:30:18;6.50;99.90
17956;DHT22;27666;51.498;11.966;2022-11-12T06:33:10;6.50;99.90
17956;DHT22;27666;51.498;11.966;2022-11-12T06:35:59;6.50;99.90
17956;DHT22;27666;51.498;11.966;2022-11-12T06:38:47;6.50;99.90
17956;DHT22;27666;51.498;11.966;2022-11-12T06:41:33;6.50;99.90
17956;DHT22;27666;51.498;11.966;2022-11-12T06:44:19;6.40;99.90
17956;DHT22;27666;51.498;11.966;2022-11-12T06:47:08;6.40;99.90
17956;DHT22;27666;51.498;11.966;2022-11-12T06:49:54;6.40;99.90
17956;DHT22;27666;51.498;11.966;2022-11-12T06:52:42;6.40;99.90
17956;DHT22;27666;51.498;11.966;2022-11-12T06:55:29;6.60;99.90
17956;DHT22;27666;51.498;11.966;2022-11-12T06:58:15;6.70;99.90
17956;DHT22;27666;51.498;11.966;2022-11-12T07:01:07;6.70;99.90
17956;DHT22;27666;51.498;11.966;2022-11-12T07:03:56;6.90;99.90
17956;DHT22;27666;51.498;11.966;2022-11-12T07:06:43;7.00;99.90
17956;DHT22;27666;51.498;11.966;2022-11-12T07:09:30;7.10;99.90
17956;DHT22;27666;51.498;11.966;2022-11-12T07:12:16;7.20;99.90
17956;DHT22;27666;51.498;11.966;2022-11-12T07:15:03;7.40;99.90
17956;DHT22;27666;51.498;11.966;2022-11-12T07:17:50;7.50;99.90
17956;DHT22;27666;51.498;11.966;2022-11-12T07:20:36;7.60;99.90
17956;DHT22;27666;51.498;11.966;2022-11-12T07:23:23;7.70;99.90
17956;DHT22;27666;51.498;11.966;2022-11-12T07:26:15;7.90;99.90
17956;DHT22;27666;51.498;11.966;2022-11-12T07:29:02;8.00;99.90
17956;DHT22;27666;51.498;11.966;2022-11-12T07:31:48;8.10;99.90
17956;DHT22;27666;51.498;11.966;2022-11-12T07:34:35;8.30;99.90
17956;DHT22;27666;51.498;11.966;2022-11-12T07:37:22;8.30;99.90
17956;DHT22;27666;51.498;11.966;2022-11-12T07:40:09;8.40;99.90
17956;DHT22;27666;51.498;11.966;2022-11-12T07:42:59;8.50;99.90
17956;DHT22;27666;51.498;11.966;2022-11-12T07:45:45;8.60;99.90
17956;DHT22;27666;51.498;11.966;2022-11-12T07:48:32;8.80;99.90
17956;DHT22;27666;51.498;11.966;2022-11-12T07:51:20;9.00;99.90
17956;DHT22;27666;51.498;11.966;2022-11-12T07:54:07;9.20;99.90
17956;DHT22;27666;51.498;11.966;2022-11-12T07:56:54;9.40;99.90
17956;DHT22;27666;51.498;11.966;2022-11-12T07:59:41;9.60;99.90
17956;DHT22;27666;51.498;11.966;2022-11-12T08:02:31;9.70;99.90
17956;DHT22;27666;51.498;11.966;2022-11-12T08:05:17;9.90;99.90
17956;DHT22;27666;51.498;11.966;2022-11-12T08:08:05;9.90;99.90
17956;DHT22;27666;51.498;11.966;2022-11-12T08:10:54;10.00;99.90
17956;DHT22;27666;51.498;11.966;2022-11-12T08:13:40;10.10;99.90
17956;DHT22;27666;51.498;11.966;2022-11-12T08:16:28;10.20;99.90
17956;DHT22;27666;51.498;11.966;2022-11-12T08:19:15;10.30;99.90
17956;DHT22;27666;51.498;11.966;2022-11-12T08:22:01;10.40;99.90
17956;DHT22;27666;51.498;11.966;2022-11-12T08:24:47;10.40;99.90
17956;DHT22;27666;51.498;11.966;2022-11-12T08:27:34;10.60;99.90
17956;DHT22;27666;51.498;11.966;2022-11-12T08:30:20;10.80;99.90
17956;DHT22;27666;51.498;11.966;2022-11-12T08:33:08;10.90;99.90
17956;DHT22;27666;51.498;11.966;2022-11-12T08:35:55;11.10;99.90
17956;DHT22;27666;51.498;11.966;2022-11-12T08:38:42;11.10;99.90
17956;DHT22;27666;51.498;11.966;2022-11-12T08:41:30;11.10;99.90
17956;DHT22;27666;51.498;11.966;2022-11-12T08:44:16;11.00;99.90
17956;DHT22;27666;51.498;11.966;2022-11-12T08:47:02;10.90;99.90
17956;DHT22;27666;51.498;11.966;2022-11-12T08:49:50;10.80;99.90
17956;DHT22;27666;51.498;11.966;2022-11-12T08:52:37;10.70;99.90
17956;DHT22;27666;51.498;11.966;2022-11-12T08:55:23;10.60;99.90
17956;DHT22;27666;51.498;11.966;2022-11-12T08:58:09;10.50;99.90
17956;DHT22;27666;51.498;11.966;2022-11-12T09:00:56;10.40;99.90
17956;DHT22;27666;51.498;11.966;2022-11-12T09:03:43;10.30;99.90
17956;DHT22;27666;51.498;11.966;2022-11-12T09:06:31;10.30;99.90
17956;DHT22;27666;51.498;11.966;2022-11-12T09:09:17;10.40;99.90
17956;DHT22;27666;51.498;11.966;2022-11-12T09:12:05;10.30;99.90
17956;DHT22;27666;51.498;11.966;2022-11-12T09:15:00;10.30;99.90
17956;DHT22;27666;51.498;11.966;2022-11-12T09:18:10;10.40;99.90
17956;DHT22;27666;51.498;11.966;2022-11-12T09:21:02;10.40;99.90
17956;DHT22;27666;51.498;11.966;2022-11-12T09:23:50;10.40;99.90
17956;DHT22;27666;51.498;11.966;2022-11-12T09:26:37;10.40;99.90
17956;DHT22;27666;51.498;11.966;2022-11-12T09:29:23;10.50;99.90
17956;DHT22;27666;51.498;11.966;2022-11-12T09:32:11;10.50;99.90
17956;DHT22;27666;51.498;11.966;2022-11-12T09:34:57;10.60;99.90
17956;DHT22;27666;51.498;11.966;2022-11-12T09:37:44;10.70;99.90
17956;DHT22;27666;51.498;11.966;2022-11-12T09:40:38;10.80;99.90
17956;DHT22;27666;51.498;11.966;2022-11-12T09:43:29;10.80;99.90
17956;DHT22;27666;51.498;11.966;2022-11-12T09:46:27;10.90;99.90
17956;DHT22;27666;51.498;11.966;2022-11-12T09:49:18;11.00;99.90
17956;DHT22;27666;51.498;11.966;2022-11-12T09:52:11;11.20;99.90
17956;DHT22;27666;51.498;11.966;2022-11-12T09:55:04;11.10;99.90
17956;DHT22;27666;51.498;11.966;2022-11-12T09:57:54;11.10;99.90
17956;DHT22;27666;51.498;11.966;2022-11-12T10:00:47;11.10;99.90
17956;DHT22;27666;51.498;11.966;2022-11-12T10:03:40;11.30;99.90
17956;DHT22;27666;51.498;11.966;2022-11-12T10:06:34;11.20;99.90
17956;DHT22;27666;51.498;11.966;2022-11-12T10:09:24;11.20;99.90
17956;DHT22;27666;51.498;11.966;2022-11-12T10:12:18;11.30;99.90
17956;DHT22;27666;51.498;11.966;2022-11-12T10:15:35;11.40;99.90
17956;DHT22;27666;51.498;11.966;2022-11-12T10:19:01;11.40;99.90
17956;DHT22;27666;51.498;11.966;2022-11-12T10:21:53;11.60;99.90
17956;DHT22;27666;51.498;11.966;2022-11-12T10:24:43;11.60;99.90
17956;DHT22;27666;51.498;11.966;2022-11-12T10:27:35;11.60;99.90
17956;DHT22;27666;51.498;11.966;2022-11-12T10:30:25;11.70;99.90
17956;DHT22;27666;51.498;11.966;2022-11-12T10:33:13;11.80;99.90
17956;DHT22;27666;51.498;11.966;2022-11-12T10:36:17;11.80;99.90
17956;DHT22;27666;51.498;11.966;2022-11-12T10:39:05;11.80;99.90
17956;DHT22;27666;51.498;11.966;2022-11-12T10:42:01;11.80;99.90
17956;DHT22;27666;51.498;11.966;2022-11-12T10:44:49;11.90;99.90
17956;DHT22;27666;51.498;11.966;2022-11-12T10:47:38;11.90;99.90
17956;DHT22;27666;51.498;11.966;2022-11-12T10:50:29;12.00;99.90
17956;DHT22;27666;51.498;11.966;2022-11-12T10:53:31;12.00;99.90
17956;DHT22;27666;51.498;11.966;2022-11-12T10:56:25;12.10;99.90
17956;DHT22;27666;51.498;11.966;2022-11-12T10:59:15;12.10;99.90
17956;DHT22;27666;51.498;11.966;2022-11-12T11:02:02;12.20;99.90
17956;DHT22;27666;51.498;11.966;2022-11-12T11:04:49;12.20;99.90
17956;DHT22;27666;51.498;11.966;2022-11-12T11:07:36;12.20;99.90
17956;DHT22;27666;51.498;11.966;2022-11-12T11:10:25;12.20;99.90
17956;DHT22;27666;51.498;11.966;2022-11-12T11:13:20;12.10;99.90
17956;DHT22;27666;51.498;11.966;2022-11-12T11:16:09;12.20;99.90
17956;DHT22;27666;51.498;11.966;2022-11-12T11:18:59;11.90;99.90
17956;DHT22;27666;51.498;11.966;2022-11-12T11:21:56;12.10;99.90
17956;DHT22;27666;51.498;11.966;2022-11-12T11:24:49;12.20;99.90
17956;DHT22;27666;51.498;11.966;2022-11-12T11:27:42;12.10;99.90
17956;DHT22;27666;51.498;11.966;2022-11-12T11:30:30;12.10;99.90
17956;DHT22;27666;51.498;11.966;2022-11-12T11:33:29;12.10;99.90
17956;DHT22;27666;51.498;11.966;2022-11-12T11:36:21;12.10;99.90
17956;DHT22;27666;51.498;11.966;2022-11-12T11:39:18;12.10;99.90
17956;DHT22;27666;51.498;11.966;2022-11-12T11:42:21;12.10;99.90
17956;DHT22;27666;51.498;11.966;2022-11-12T11:45:15;12.10;99.90
17956;DHT22;27666;51.498;11.966;2022-11-12T11:48:11;12.00;99.90
17956;DHT22;27666;51.498;11.966;2022-11-12T11:51:05;12.10;99.90
17956;DHT22;27666;51.498;11.966;2022-11-12T11:53:59;12.00;99.90
17956;DHT22;27666;51.498;11.966;2022-11-12T11:56:51;12.10;99.90
17956;DHT22;27666;51.498;11.966;2022-11-12T11:59:50;12.00;99.90
17956;DHT22;27666;51.498;11.966;2022-11-12T12:03:04;11.90;99.90
17956;DHT22;27666;51.498;11.966;2022-11-12T12:06:14;11.80;99.90
17956;DHT22;27666;51.498;11.966;2022-11-12T12:09:13;11.80;99.90
17956;DHT22;27666;51.498;11.966;2022-11-12T12:12:09;11.80;99.90
17956;DHT22;27666;51.498;11.966;2022-11-12T12:15:15;11.60;99.90
17956;DHT22;27666;51.498;11.966;2022-11-12T12:18:08;11.70;99.90
17956;DHT22;27666;51.498;11.966;2022-11-12T12:21:02;11.70;99.90
17956;DHT22;27666;51.498;11.966;2022-11-12T12:23:54;11.60;99.90
17956;DHT22;27666;51.498;11.966;2022-11-12T12:26:44;11.70;99.90
17956;DHT22;27666;51.498;11.966;2022-11-12T12:29:38;11.60;99.90
17956;DHT22;27666;51.498;11.966;2022-11-12T12:32:28;11.60;99.90
17956;DHT22;27666;51.498;11.966;2022-11-12T12:35:21;11.50;99.90
17956;DHT22;27666;51.498;11.966;2022-11-12T12:38:12;11.50;99.90
17956;DHT22;27666;51.498;11.966;2022-11-12T12:41:04;11.50;99.90
17956;DHT22;27666;51.498;11.966;2022-11-12T12:43:57;11.30;99.90
17956;DHT22;27666;51.498;11.966;2022-11-12T12:46:55;11.40;99.90
17956;DHT22;27666;51.498;11.966;2022-11-12T12:49:42;11.30;99.90
17956;DHT22;27666;51.498;11.966;2022-11-12T12:52:29;11.20;99.90
17956;DHT22;27666;51.498;11.966;2022-11-12T12:55:38;11.20;99.90
17956;DHT22;27666;51.498;11.966;2022-11-12T12:58:26;11.20;99.90
17956;DHT22;27666;51.498;11.966;2022-11-12T13:01:29;11.20;99.90
17956;DHT22;27666;51.498;11.966;2022-11-12T13:04:52;11.20;99.90
17956;DHT22;27666;51.498;11.966;2022-11-12T13:07:41;11.20;99.90
17956;DHT22;27666;51.498;11.966;2022-11-12T13:10:52;11.20;99.90
17956;DHT22;27666;51.498;11.966;2022-11-12T13:13:38;11.20;99.90
17956;DHT22;27666;51.498;11.966;2022-11-12T13:16:56;11.20;99.90
17956;DHT22;27666;51.498;11.966;2022-11-12T13:20:16;11.10;99.90
17956;DHT22;27666;51.498;11.966;2022-11-12T13:22:54;11.10;99.90
17956;DHT22;27666;51.498;11.966;2022-11-12T13:25:41;11.10;99.90
17956;DHT22;27666;51.498;11.966;2022-11-12T13:28:27;11.10;99.90
17956;DHT22;27666;51.498;11.966;2022-11-12T13:31:25;11.10;99.90
17956;DHT22;27666;51.498;11.966;2022-11-12T13:34:21;11.00;99.90
17956;DHT22;27666;51.498;11.966;2022-11-12T13:37:17;11.10;99.90
17956;DHT22;27666;51.498;11.966;2022-11-12T13:40:10;11.10;99.90
17956;DHT22;27666;51.498;11.966;2022-11-12T13:43:02;11.10;99.90
17956;DHT22;27666;51.498;11.966;2022-11-12T13:45:52;11.10;99.90
17956;DHT22;27666;51.498;11.966;2022-11-12T13:48:42;11.00;99.90
17956;DHT22;27666;51.498;11.966;2022-11-12T13:51:37;11.10;99.90
17956;DHT22;27666;51.498;11.966;2022-11-12T13:54:32;11.10;99.90
17956;DHT22;27666;51.498;11.966;2022-11-12T13:57:29;11.10;99.90
17956;DHT22;27666;51.498;11.966;2022-11-12T14:00:24;11.10;99.90
17956;DHT22;27666;51.498;11.966;2022-11-12T14:03:14;11.20;99.90
17956;DHT22;27666;51.498;11.966;2022-11-12T14:06:04;11.20;99.90
17956;DHT22;27666;51.498;11.966;2022-11-12T14:09:08;11.20;99.90
17956;DHT22;27666;51.498;11.966;2022-11-12T14:12:14;11.30;99.90
17956;DHT22;27666;51.498;11.966;2022-11-12T14:15:19;11.20;99.90
17956;DHT22;27666;51.498;11.966;2022-11-12T14:18:14;11.20;99.90
17956;DHT22;27666;51.498;11.966;2022-11-12T14:21:04;11.10;99.90
17956;DHT22;27666;51.498;11.966;2022-11-12T14:23:52;11.00;99.90
17956;DHT22;27666;51.498;11.966;2022-11-12T14:26:41;11.10;99.90
17956;DHT22;27666;51.498;11.966;2022-11-12T14:29:28;11.00;99.90
17956;DHT22;27666;51.498;11.966;2022-11-12T14:32:21;10.90;99.90
17956;DHT22;27666;51.498;11.966;2022-11-12T14:35:19;10.80;99.90
17956;DHT22;27666;51.498;11.966;2022-11-12T14:38:12;10.90;99.90
17956;DHT22;27666;51.498;11.966;2022-11-12T14:41:02;10.80;99.90
17956;DHT22;27666;51.498;11.966;2022-11-12T14:43:50;10.80;99.90
17956;DHT22;27666;51.498;11.966;2022-11-12T14:46:56;10.80;99.90
17956;DHT22;27666;51.498;11.966;2022-11-12T14:49:47;10.70;99.90
17956;DHT22;27666;51.498;11.966;2022-11-12T14:52:38;10.60;99.90
17956;DHT22;27666;51.498;11.966;2022-11-12T14:55:29;10.70;99.90
17956;DHT22;27666;51.498;11.966;2022-11-12T14:58:19;10.60;99.90
17956;DHT22;27666;51.498;11.966;2022-11-12T15:01:20;10.50;99.90
17956;DHT22;27666;51.498;11.966;2022-11-12T15:04:35;10.60;99.90
17956;DHT22;27666;51.498;11.966;2022-11-12T15:07:25;10.50;99.90
17956;DHT22;27666;51.498;11.966;2022-11-12T15:10:38;10.50;99.90
17956;DHT22;27666;51.498;11.966;2022-11-12T15:13:26;10.50;99.90
17956;DHT22;27666;51.498;11.966;2022-11-12T15:16:18;10.40;99.90
17956;DHT22;27666;51.498;11.966;2022-11-12T15:19:14;10.40;99.90
17956;DHT22;27666;51.498;11.966;2022-11-12T15:22:03;10.30;99.90
17956;DHT22;27666;51.498;11.966;2022-11-12T15:24:51;10.30;99.90
17956;DHT22;27666;51.498;11.966;2022-11-12T15:27:39;10.30;99.90
17956;DHT22;27666;51.498;11.966;2022-11-12T15:30:28;10.20;99.90
17956;DHT22;27666;51.498;11.966;2022-11-12T15:33:20;10.20;99.90
17956;DHT22;27666;51.498;11.966;2022-11-12T15:36:14;10.10;99.90
17956;DHT22;27666;51.498;11.966;2022-11-12T15:39:02;10.10;99.90
17956;DHT22;27666;51.498;11.966;2022-11-12T15:41:57;10.00;99.90
17956;DHT22;27666;51.498;11.966;2022-11-12T15:44:44;10.00;99.90
17956;DHT22;27666;51.498;11.966;2022-11-12T15:47:31;9.90;99.90
17956;DHT22;27666;51.498;11.966;2022-11-12T15:50:19;9.90;99.90
17956;DHT22;27666;51.498;11.966;2022-11-12T15:53:06;10.00;99.90
17956;DHT22;27666;51.498;11.966;2022-11-12T15:55:53;9.90;99.90
17956;DHT22;27666;51.498;11.966;2022-11-12T15:58:40;9.70;99.90
17956;DHT22;27666;51.498;11.966;2022-11-12T16:01:27;9.70;99.90
17956;DHT22;27666;51.498;11.966;2022-11-12T16:04:13;9.80;99.90
17956;DHT22;27666;51.498;11.966;2022-11-12T16:07:00;9.80;99.90
17956;DHT22;27666;51.498;11.966;2022-11-12T16:09:46;9.80;99.90
17956;DHT22;27666;51.498;11.966;2022-11-12T16:12:33;9.80;99.90
17956;DHT22;27666;51.498;11.966;2022-11-12T16:15:21;9.80;99.90
17956;DHT22;27666;51.498;11.966;2022-11-12T16:18:10;9.70;99.90
17956;DHT22;27666;51.498;11.966;2022-11-12T16:20:57;9.70;99.90
17956;DHT22;27666;51.498;11.966;2022-11-12T16:23:43;9.70;99.90
17956;DHT22;27666;51.498;11.966;2022-11-12T16:26:31;9.50;99.90
17956;DHT22;27666;51.498;11.966;2022-11-12T16:29:18;9.60;99.90
17956;DHT22;27666;51.498;11.966;2022-11-12T16:32:10;9.60;99.90
17956;DHT22;27666;51.498;11.966;2022-11-12T16:34:56;9.50;99.90
17956;DHT22;27666;51.498;11.966;2022-11-12T16:37:47;9.50;99.90
17956;DHT22;27666;51.498;11.966;2022-11-12T16:40:34;9.50;99.90
17956;DHT22;27666;51.498;11.966;2022-11-12T16:43:20;9.50;99.90
17956;DHT22;27666;51.498;11.966;2022-11-12T16:46:13;9.50;99.90
17956;DHT22;27666;51.498;11.966;2022-11-12T16:49:02;9.50;99.90
17956;DHT22;27666;51.498;11.966;2022-11-12T16:51:48;9.40;99.90
17956;DHT22;27666;51.498;11.966;2022-11-12T16:54:34;9.40;99.90
17956;DHT22;27666;51.498;11.966;2022-11-12T16:57:21;9.40;99.90
17956;DHT22;27666;51.498;11.966;2022-11-12T17:00:10;9.20;99.90
17956;DHT22;27666;51.498;11.966;2022-11-12T17:02:57;9.30;99.90
17956;DHT22;27666;51.498;11.966;2022-11-12T17:05:50;9.20;99.90
17956;DHT22;27666;51.498;11.966;2022-11-12T17:08:36;9.20;99.90
17956;DHT22;27666;51.498;11.966;2022-11-12T17:11:23;9.20;99.90
17956;DHT22;27666;51.498;11.966;2022-11-12T17:14:09;9.00;99.90
17956;DHT22;27666;51.498;11.966;2022-11-12T17:16:56;9.10;99.90
17956;DHT22;27666;51.498;11.966;2022-11-12T17:19:42;9.20;99.90
17956;DHT22;27666;51.498;11.966;2022-11-12T17:22:30;9.00;99.90
17956;DHT22;27666;51.498;11.966;2022-11-12T17:25:16;9.00;99.90
17956;DHT22;27666;51.498;11.966;2022-11-12T17:28:03;9.10;99.90
17956;DHT22;27666;51.498;11.966;2022-11-12T17:30:49;9.00;99.90
17956;DHT22;27666;51.498;11.966;2022-11-12T17:33:40;9.10;99.90
17956;DHT22;27666;51.498;11.966;2022-11-12T17:36:27;9.00;99.90
17956;DHT22;27666;51.498;11.966;2022-11-12T17:39:15;8.90;99.90
17956;DHT22;27666;51.498;11.966;2022-11-12T17:42:01;8.70;99.90
17956;DHT22;27666;51.498;11.966;2022-11-12T17:44:48;8.80;99.90
17956;DHT22;27666;51.498;11.966;2022-11-12T17:47:34;8.70;99.90